Time;durP1;ratioP1;P1;durP2;ratioP2;P2;SDS_P1;SDS_P2;PMS_P1;PMS_P2;Temp;Humidity;BMP_temperature;BMP_pressure;BME280_temperature;BME280_humidity;BME280_pressure;Samples;Min_cycle;Max_cycle;Signal;HPM_P1;HPM_P2
2022/01/10 00:00:37;;;;;;;50.63;24.23;;;;;;;-2.46;100.00;101077.66;5093072;28;20020;-81
2022/01/10 00:03:04;;;;;;;52.47;24.33;;;;;;;-2.45;100.00;101081.13;5092589;28;20078;-81
2022/01/10 00:05:29;;;;;;;63.65;23.98;;;;;;;-2.46;100.00;101097.22;5093003;28;20028;-81
2022/01/10 00:07:54;;;;;;;54.78;25.52;;;;;;;-2.53;100.00;101101.25;5083416;28;20538;-81
2022/01/10 00:10:20;;;;;;;48.80;25.85;;;;;;;-2.50;100.00;101113.28;5074062;28;20441;-81
2022/01/10 00:12:46;;;;;;;49.92;24.70;;;;;;;-2.54;100.00;101117.41;5077602;28;20033;-81
2022/01/10 00:15:15;;;;;;;59.17;25.75;;;;;;;-2.51;100.00;101126.88;5074345;28;20055;-81
2022/01/10 00:17:41;;;;;;;60.63;26.70;;;;;;;-2.50;100.00;101119.25;5073155;28;20412;-82
2022/01/10 00:20:08;;;;;;;58.55;27.05;;;;;;;-2.52;100.00;101128.53;5072372;28;20059;-81
2022/01/10 00:22:34;;;;;;;65.75;28.48;;;;;;;-2.48;100.00;101130.38;5072960;28;20075;-81
2022/01/10 00:25:00;;;;;;;56.13;27.38;;;;;;;-2.50;100.00;101134.56;5090529;28;20060;-81
2022/01/10 00:27:25;;;;;;;71.43;28.70;;;;;;;-2.50;100.00;101126.91;5092776;28;20027;-81
2022/01/10 00:29:50;;;;;;;67.40;28.83;;;;;;;-2.54;100.00;101116.53;5091550;28;20476;-81
2022/01/10 00:32:16;;;;;;;59.15;27.13;;;;;;;-2.55;100.00;101122.44;5091508;28;20039;-81
2022/01/10 00:34:41;;;;;;;53.33;26.60;;;;;;;-2.59;100.00;101117.22;5072397;28;20024;-81
2022/01/10 00:37:06;;;;;;;62.25;27.48;;;;;;;-2.62;100.00;101114.59;5079863;28;20028;-81
2022/01/10 00:39:31;;;;;;;63.50;27.23;;;;;;;-2.63;100.00;101125.63;5093396;28;20020;-81
2022/01/10 00:41:57;;;;;;;62.80;28.75;;;;;;;-2.60;100.00;101130.81;5090201;28;20036;-81
2022/01/10 00:44:25;;;;;;;58.28;28.58;;;;;;;-2.62;100.00;101132.47;5088499;28;20476;-80
2022/01/10 00:46:52;;;;;;;52.70;26.77;;;;;;;-2.63;100.00;101146.03;5072466;28;20148;-81
2022/01/10 00:49:17;;;;;;;56.05;27.15;;;;;;;-2.67;100.00;101138.22;5076734;28;20380;-81
2022/01/10 00:51:42;;;;;;;64.68;29.90;;;;;;;-2.66;100.00;101139.94;5073971;28;20025;-81
2022/01/10 00:54:07;;;;;;;54.42;26.23;;;;;;;-2.68;100.00;101160.34;5080184;28;20024;-81
2022/01/10 00:56:33;;;;;;;57.90;28.23;;;;;;;-2.66;100.00;101161.22;5074350;28;20029;-81
2022/01/10 00:58:58;;;;;;;67.32;28.85;;;;;;;-2.63;100.00;101160.47;5087335;28;20024;-81
2022/01/10 01:01:23;;;;;;;62.88;27.88;;;;;;;-2.65;100.00;101163.00;5075979;28;20066;-81
2022/01/10 01:03:49;;;;;;;70.85;30.20;;;;;;;-2.25;100.00;101169.47;5072393;28;20039;-81
2022/01/10 01:06:15;;;;;;;69.38;30.80;;;;;;;-2.03;100.00;101170.16;5072280;28;20058;-80
2022/01/10 01:08:41;;;;;;;72.68;32.47;;;;;;;-1.94;100.00;101171.34;5073948;28;20024;-81
2022/01/10 01:13:55;;;;;;;70.30;31.58;;;;;;;-1.98;100.00;101182.28;5092857;28;20042;-81
2022/01/10 01:19:50;;;;;;;66.15;30.85;;;;;;;-2.09;100.00;101203.16;5076347;28;20029;-81
2022/01/10 01:24:36;;;;;;;;;;;;;;;-2.13;100.00;101210.75;5089344;28;20044;-81
2022/01/10 01:27:01;;;;;;;59.95;27.88;;;;;;;-2.17;100.00;101214.00;5071864;28;19912;-81
2022/01/10 01:29:29;;;;;;;58.17;27.55;;;;;;;-2.19;100.00;101217.31;5071269;28;20028;-81
2022/01/10 01:31:55;;;;;;;54.90;26.85;;;;;;;-2.21;100.00;101221.53;5080792;28;20059;-81
2022/01/10 01:34:23;;;;;;;58.65;28.55;;;;;;;-2.23;100.00;101231.66;5086194;28;20020;-81
2022/01/10 01:36:52;;;;;;;60.28;28.33;;;;;;;-2.24;100.00;101239.28;5084991;28;20106;-81
2022/01/10 01:39:24;;;;;;;65.28;28.33;;;;;;;-2.26;100.00;101229.00;5090045;28;20020;-81
2022/01/10 01:41:54;;;;;;;61.83;27.77;;;;;;;-2.28;100.00;101228.09;5083300;28;20043;-81
2022/01/10 01:44:20;;;;;;;54.67;27.10;;;;;;;-2.31;100.00;101243.31;5071655;28;20451;-81
2022/01/10 01:46:46;;;;;;;51.10;27.05;;;;;;;-2.31;100.00;101250.13;5075528;28;20107;-81
2022/01/10 01:49:12;;;;;;;58.60;27.00;;;;;;;-2.33;100.00;101250.03;5089760;28;20109;-81
2022/01/10 01:51:37;;;;;;;53.75;26.85;;;;;;;-2.33;100.00;101256.84;5083953;28;20029;-81
2022/01/10 01:54:04;;;;;;;64.70;27.80;;;;;;;-2.34;100.00;101262.78;5075665;28;20521;-81
2022/01/10 01:56:30;;;;;;;59.10;28.13;;;;;;;-2.34;100.00;101262.78;5074749;28;20061;-81
2022/01/10 01:58:55;;;;;;;66.55;27.50;;;;;;;-2.35;100.00;101264.47;5070683;28;20561;-81
2022/01/10 02:01:22;;;;;;;57.33;27.67;;;;;;;-2.35;100.00;101267.00;5075391;28;20024;-81
2022/01/10 02:03:48;;;;;;;59.92;26.65;;;;;;;-2.38;100.00;101269.47;5084231;28;20033;-81
2022/01/10 02:06:14;;;;;;;54.10;25.70;;;;;;;-2.39;100.00;101285.56;5070976;28;20062;-81
2022/01/10 02:08:40;;;;;;;58.50;25.95;;;;;;;-2.41;100.00;101279.56;5082003;28;20081;-81
2022/01/10 02:11:08;;;;;;;56.92;26.90;;;;;;;-2.41;100.00;101285.53;5071507;28;20099;-81
2022/01/10 02:13:34;;;;;;;60.60;27.92;;;;;;;-2.43;100.00;101287.16;5091534;28;20471;-81
2022/01/10 02:16:02;;;;;;;53.17;26.13;;;;;;;-2.44;100.00;101276.91;5075129;28;20056;-81
2022/01/10 02:18:28;;;;;;;57.47;26.23;;;;;;;-2.45;100.00;101280.28;5070872;28;20025;-81
2022/01/10 02:20:54;;;;;;;58.03;27.42;;;;;;;-2.48;100.00;101281.03;5088725;28;20036;-81
2022/01/10 02:23:20;;;;;;;54.38;26.45;;;;;;;-2.47;100.00;101284.44;5071865;28;20032;-81
2022/01/10 02:25:46;;;;;;;61.65;27.35;;;;;;;-2.50;100.00;101290.28;5081611;28;20476;-80
2022/01/10 02:28:12;;;;;;;56.75;27.50;;;;;;;-2.53;100.00;101289.31;5071377;28;20035;-80
2022/01/10 02:30:39;;;;;;;59.38;27.63;;;;;;;-2.53;100.00;101299.53;5085466;28;20028;-80
2022/01/10 02:33:04;;;;;;;59.65;29.00;;;;;;;-2.57;100.00;101300.25;5073016;28;20028;-81
2022/01/10 02:35:34;;;;;;;60.53;28.33;;;;;;;-2.61;100.00;101312.88;5077925;28;20032;-81
2022/01/10 02:38:00;;;;;;;69.60;27.77;;;;;;;-2.65;100.00;101311.03;5090923;28;20426;-81
2022/01/10 02:40:29;;;;;;;59.65;27.23;;;;;;;-2.67;100.00;101307.53;5089443;28;20031;-81
2022/01/10 02:42:55;;;;;;;62.08;28.58;;;;;;;-2.63;100.00;101313.63;5079284;28;20071;-81
2022/01/10 02:45:21;;;;;;;57.58;28.27;;;;;;;-2.60;100.00;101324.81;5075544;28;20086;-81
2022/01/10 02:47:47;;;;;;;66.35;30.60;;;;;;;-2.61;100.00;101328.19;5074366;28;20016;-81
2022/01/10 02:50:13;;;;;;;71.85;30.63;;;;;;;-2.59;100.00;101333.34;5087281;28;20029;-81
2022/01/10 02:52:39;;;;;;;67.88;31.42;;;;;;;-2.49;100.00;101347.31;5078348;28;20031;-81
2022/01/10 02:55:07;;;;;;;70.50;31.25;;;;;;;-2.40;100.00;101332.34;5085794;28;20040;-81
2022/01/10 02:57:33;;;;;;;80.07;35.05;;;;;;;-2.36;100.00;101336.75;5074634;28;20028;-81
2022/01/10 02:59:59;;;;;;;74.68;32.28;;;;;;;-2.34;100.00;101353.03;5074667;28;20065;-81
2022/01/10 03:02:29;;;;;;;80.57;32.55;;;;;;;-2.32;100.00;101355.63;5084804;28;20075;-81
2022/01/10 03:04:54;;;;;;;75.70;33.03;;;;;;;-2.33;100.00;101371.75;5094738;28;20475;-81
2022/01/10 03:07:23;;;;;;;79.47;34.33;;;;;;;-2.25;100.00;101378.03;5092958;28;20043;-81
2022/01/10 03:09:50;;;;;;;72.10;32.72;;;;;;;-2.23;100.00;101364.50;5092959;28;20396;-81
2022/01/10 03:12:15;;;;;;;81.47;31.95;;;;;;;-2.21;100.00;101378.19;5083191;28;20111;-81
2022/01/10 03:14:41;;;;;;;79.10;33.22;;;;;;;-2.22;100.00;101389.25;5085861;28;20123;-81
2022/01/10 03:17:08;;;;;;;73.28;33.00;;;;;;;-2.21;100.00;101383.31;5078558;28;20029;-81
2022/01/10 03:19:34;;;;;;;83.32;33.83;;;;;;;-2.19;100.00;101380.78;5082094;28;20629;-81
2022/01/10 03:21:59;;;;;;;84.70;35.45;;;;;;;-2.18;100.00;101390.22;5080481;28;20031;-81
2022/01/10 03:24:25;;;;;;;72.60;32.80;;;;;;;-2.18;100.00;101396.19;5075535;28;20460;-81
2022/01/10 03:26:50;;;;;;;72.47;34.25;;;;;;;-2.18;100.00;101398.75;5089773;28;20032;-81
2022/01/10 03:29:15;;;;;;;68.60;32.05;;;;;;;-2.21;100.00;101407.97;5087455;28;20049;-81
2022/01/10 03:31:40;;;;;;;64.70;32.75;;;;;;;-2.24;100.00;101401.06;5074456;28;20024;-81
2022/01/10 03:34:10;;;;;;;74.22;33.58;;;;;;;-2.26;100.00;101410.34;5079706;28;20405;-81
2022/01/10 03:36:36;;;;;;;78.97;34.67;;;;;;;-2.28;100.00;101406.03;5082708;28;20020;-81
2022/01/10 03:39:01;;;;;;;71.07;31.88;;;;;;;-2.28;100.00;101409.44;5077659;28;20024;-81
2022/01/10 03:41:26;;;;;;;78.85;34.35;;;;;;;-2.25;100.00;101422.31;5082517;28;20028;-82
2022/01/10 03:43:51;;;;;;;77.10;35.00;;;;;;;-2.23;100.00;101419.81;5085109;28;20035;-82
2022/01/10 03:46:17;;;;;;;68.93;34.22;;;;;;;-2.25;100.00;101430.00;5078318;28;20035;-81
2022/01/10 03:48:42;;;;;;;79.35;34.08;;;;;;;-2.22;100.00;101440.31;5074315;28;20082;-82
2022/01/10 03:51:07;;;;;;;72.35;33.60;;;;;;;-2.20;100.00;101451.44;5084681;28;20024;-82
2022/01/10 03:53:32;;;;;;;81.13;34.40;;;;;;;-2.22;100.00;101445.44;5087504;28;20024;-81
2022/01/10 03:55:58;;;;;;;75.85;35.55;;;;;;;-2.19;100.00;101455.78;5076161;28;20052;-81
2022/01/10 03:58:23;;;;;;;69.28;31.58;;;;;;;-2.21;100.00;101457.38;5092569;28;20028;-82
2022/01/10 04:00:48;;;;;;;78.80;34.28;;;;;;;-2.21;100.00;101465.03;5078278;28;20013;-82
2022/01/10 04:03:14;;;;;;;81.97;34.63;;;;;;;-2.19;100.00;101459.97;5077743;28;20092;-81
2022/01/10 04:05:39;;;;;;;78.75;35.13;;;;;;;-2.14;100.00;101469.56;5091194;28;20408;-81
2022/01/10 04:08:05;;;;;;;82.35;36.53;;;;;;;-2.15;100.00;101474.63;5093873;28;20024;-82
2022/01/10 04:10:30;;;;;;;84.60;35.33;;;;;;;-2.10;100.00;101465.44;5077073;28;20036;-82
2022/01/10 04:12:56;;;;;;;76.28;34.47;;;;;;;-2.05;100.00;101473.31;5080713;28;20032;-82
2022/01/10 04:15:21;;;;;;;73.57;35.17;;;;;;;-2.06;100.00;101466.44;5087414;28;20024;-82
2022/01/10 04:17:52;;;;;;;86.93;36.75;;;;;;;-2.06;100.00;101475.00;5092869;28;20016;-82
2022/01/10 04:20:18;;;;;;;82.07;36.78;;;;;;;-2.01;100.00;101475.16;5078920;28;20028;-82
2022/01/10 04:22:43;;;;;;;88.90;39.28;;;;;;;-2.03;100.00;101479.31;5073556;28;20037;-82
2022/01/10 04:25:08;;;;;;;88.85;39.63;;;;;;;-1.98;100.00;101491.47;5089910;28;20031;-81
2022/01/10 04:27:34;;;;;;;81.18;36.53;;;;;;;-1.98;100.00;101500.81;5093426;28;20026;-82
2022/01/10 04:29:59;;;;;;;86.95;38.30;;;;;;;-1.95;100.00;101494.13;5078731;28;20180;-82
2022/01/10 04:32:27;;;;;;;103.65;40.80;;;;;;;-1.89;100.00;101496.06;5074438;28;20548;-82
2022/01/10 04:34:53;;;;;;;102.38;40.47;;;;;;;-1.77;100.00;101509.28;5084639;28;20046;-82
2022/01/10 04:37:19;;;;;;;93.55;42.55;;;;;;;-1.72;100.00;101506.91;5077807;28;20111;-82
2022/01/10 04:39:44;;;;;;;101.63;43.35;;;;;;;-1.68;100.00;101508.75;5083207;28;20143;-82
2022/01/10 04:42:09;;;;;;;104.05;45.78;;;;;;;-1.63;100.00;101525.16;5084919;28;20032;-82
2022/01/10 04:44:34;;;;;;;103.97;43.50;;;;;;;-1.61;100.00;101523.50;5082082;28;20070;-82
2022/01/10 04:47:00;;;;;;;97.93;43.30;;;;;;;-1.59;100.00;101521.88;5079842;28;20501;-82
2022/01/10 04:49:26;;;;;;;110.82;45.45;;;;;;;-1.61;100.00;101531.19;5080073;28;20037;-82
2022/01/10 04:51:53;;;;;;;118.93;48.75;;;;;;;-1.61;100.00;101538.84;5075960;28;20201;-82
2022/01/10 04:54:19;;;;;;;113.97;46.65;;;;;;;-1.60;100.00;101555.97;5079699;28;20035;-82
2022/01/10 04:56:45;;;;;;;104.25;45.13;;;;;;;-1.63;100.00;101553.28;5091953;28;20020;-82
2022/01/10 04:59:11;;;;;;;104.90;46.47;;;;;;;-1.63;100.00;101557.53;5092714;28;20050;-82
2022/01/10 05:01:37;;;;;;;120.47;48.90;;;;;;;-1.65;100.00;101566.00;5076508;28;20020;-82
2022/01/10 05:04:02;;;;;;;119.80;49.58;;;;;;;-1.60;100.00;101583.19;5072593;28;20044;-82
2022/01/10 05:06:27;;;;;;;109.00;45.58;;;;;;;-1.67;100.00;101569.28;5072482;28;20086;-82
2022/01/10 05:08:53;;;;;;;121.20;48.95;;;;;;;-1.55;100.00;101579.13;5074224;28;20120;-82
2022/01/10 05:11:19;;;;;;;112.32;46.75;;;;;;;-1.57;100.00;101585.84;5072650;28;20099;-82
2022/01/10 05:13:45;;;;;;;111.72;45.95;;;;;;;-1.60;100.00;101586.63;5072207;28;20491;-82
2022/01/10 05:16:10;;;;;;;112.28;47.13;;;;;;;-1.55;100.00;101594.47;5071393;28;20251;-82
2022/01/10 05:18:38;;;;;;;119.05;47.25;;;;;;;-1.52;100.00;101607.38;5073319;28;20066;-82
2022/01/10 05:21:03;;;;;;;119.95;49.15;;;;;;;-1.57;100.00;101590.97;5071454;28;20055;-82
2022/01/10 05:23:29;;;;;;;125.93;47.50;;;;;;;-1.52;100.00;101604.81;5088786;28;20059;-82
2022/01/10 05:25:54;;;;;;;124.82;48.78;;;;;;;-1.51;100.00;101606.56;5072230;28;20498;-81
2022/01/10 05:28:19;;;;;;;126.13;48.00;;;;;;;-1.48;100.00;101627.13;5071631;28;20041;-82
2022/01/10 05:30:47;;;;;;;120.53;48.67;;;;;;;-1.48;100.00;101622.00;5071865;28;20376;-82
2022/01/10 05:33:13;;;;;;;101.95;45.97;;;;;;;-1.47;100.00;101624.66;5085400;28;20371;-82
2022/01/10 05:35:39;;;;;;;112.07;47.70;;;;;;;-1.48;100.00;101632.25;5081634;28;20028;-82
2022/01/10 05:38:05;;;;;;;116.47;47.42;;;;;;;-1.44;100.00;101636.66;5078665;28;20498;-82
2022/01/10 05:40:30;;;;;;;126.00;47.50;;;;;;;-1.46;100.00;101634.06;5078840;28;20028;-82
2022/01/10 05:42:56;;;;;;;133.13;50.38;;;;;;;-1.43;100.00;101652.06;5090210;28;20035;-82
2022/01/10 05:45:21;;;;;;;129.95;50.70;;;;;;;-1.42;100.00;101658.06;5091761;28;20028;-81
2022/01/10 05:47:47;;;;;;;117.95;49.40;;;;;;;-1.43;100.00;101659.75;5092191;28;20023;-82
2022/01/10 05:50:17;;;;;;;119.30;50.30;;;;;;;-1.42;100.00;101660.63;5091205;28;20018;-82
2022/01/10 05:52:42;;;;;;;121.93;48.55;;;;;;;-1.44;100.00;101659.66;5087029;28;20046;-82
2022/01/10 05:55:08;;;;;;;128.35;50.13;;;;;;;-1.44;100.00;101669.91;5088395;28;20040;-82
2022/01/10 05:57:33;;;;;;;116.40;48.80;;;;;;;-1.49;100.00;101651.84;5091075;28;20024;-82
2022/01/10 05:59:59;;;;;;;129.38;50.47;;;;;;;-1.39;100.00;101676.09;5091659;28;20479;-82
2022/01/10 06:02:24;;;;;;;120.28;48.47;;;;;;;-1.40;100.00;101670.91;5090195;28;20039;-82
2022/01/10 06:04:49;;;;;;;115.82;48.92;;;;;;;-1.43;100.00;101664.00;5086457;28;20442;-82
2022/01/10 06:07:14;;;;;;;121.00;49.47;;;;;;;-1.39;100.00;101677.78;5071426;28;20330;-82
2022/01/10 06:09:40;;;;;;;121.80;49.20;;;;;;;-1.39;100.00;101683.75;5086332;28;20031;-82
2022/01/10 06:12:05;;;;;;;122.18;48.00;;;;;;;-1.41;100.00;101685.38;5080846;28;20085;-82
2022/01/10 06:14:31;;;;;;;123.22;47.65;;;;;;;-1.44;100.00;101695.47;5072196;28;20026;-82
2022/01/10 06:16:56;;;;;;;118.93;49.00;;;;;;;-1.37;100.00;101696.59;5071463;28;20097;-82
2022/01/10 06:19:21;;;;;;;132.13;50.35;;;;;;;-1.36;100.00;101691.56;5072826;28;20472;-82
2022/01/10 06:21:47;;;;;;;130.52;51.55;;;;;;;-1.36;100.00;101698.34;5091560;28;20020;-83
2022/01/10 06:24:12;;;;;;;143.63;51.78;;;;;;;-1.36;100.00;101706.91;5076563;28;20028;-82
2022/01/10 06:26:37;;;;;;;133.23;50.78;;;;;;;-1.36;100.00;101717.13;5079185;28;20460;-82
2022/01/10 06:29:03;;;;;;;133.85;51.78;;;;;;;-1.32;100.00;101721.53;5090336;28;20603;-82
2022/01/10 06:31:29;;;;;;;134.60;51.15;;;;;;;-1.33;100.00;101724.94;5090848;28;20024;-82
2022/01/10 06:33:54;;;;;;;120.03;49.15;;;;;;;-1.35;100.00;101731.66;5091516;28;20016;-82
2022/01/10 06:36:19;;;;;;;127.22;51.50;;;;;;;-1.33;100.00;101734.28;5091787;28;20395;-82
2022/01/10 06:38:44;;;;;;;134.50;51.67;;;;;;;-1.34;100.00;101748.78;5085790;28;20033;-83
2022/01/10 06:41:10;;;;;;;130.30;51.65;;;;;;;-1.34;100.00;101748.78;5070945;28;20103;-82
2022/01/10 06:43:37;;;;;;;131.30;51.65;;;;;;;-1.33;100.00;101754.75;5071103;28;20075;-82
2022/01/10 06:46:03;;;;;;;119.05;48.83;;;;;;;-1.33;100.00;101752.19;5070273;28;20079;-82
2022/01/10 06:48:28;;;;;;;132.07;52.20;;;;;;;-1.32;100.00;101761.59;5076732;28;20480;-82
2022/01/10 06:50:54;;;;;;;129.27;48.88;;;;;;;-1.35;100.00;101761.47;5072590;28;20025;-82
2022/01/10 06:53:20;;;;;;;130.85;51.28;;;;;;;-1.40;100.00;101747.66;5071418;28;20379;-82
2022/01/10 06:55:48;;;;;;;140.82;53.30;;;;;;;-1.31;100.00;101764.25;5075254;28;20136;-82
2022/01/10 06:58:13;;;;;;;129.18;50.00;;;;;;;-1.30;100.00;101771.09;5071047;28;20063;-82
2022/01/10 07:00:40;;;;;;;143.55;51.65;;;;;;;-1.30;100.00;101776.22;5071213;28;20052;-82
2022/01/10 07:03:06;;;;;;;125.90;48.42;;;;;;;-1.30;100.00;101775.34;5083467;28;21405;-82
2022/01/10 07:05:31;;;;;;;132.77;53.05;;;;;;;-1.29;100.00;101793.31;5085845;28;20103;-82
2022/01/10 07:07:56;;;;;;;134.48;53.55;;;;;;;-1.29;100.00;101795.84;5088478;28;20067;-82
2022/01/10 07:10:22;;;;;;;134.10;52.10;;;;;;;-1.27;100.00;101798.50;5090758;28;20025;-82
2022/01/10 07:12:47;;;;;;;145.13;53.42;;;;;;;-1.26;100.00;101813.91;5090994;28;20414;-82
2022/01/10 07:15:14;;;;;;;126.70;50.42;;;;;;;-1.29;100.00;101802.66;5085552;28;20025;-82
2022/01/10 07:17:40;;;;;;;145.02;52.30;;;;;;;-1.24;100.00;101816.53;5074609;28;20047;-82
2022/01/10 07:20:06;;;;;;;147.57;53.78;;;;;;;-1.25;100.00;101814.75;5090277;28;20416;-82
2022/01/10 07:22:31;;;;;;;142.88;51.65;;;;;;;-1.27;100.00;101816.41;5086111;28;20032;-82
2022/01/10 07:24:56;;;;;;;130.02;50.22;;;;;;;-1.27;100.00;101829.19;5090281;28;20361;-82
2022/01/10 07:27:22;;;;;;;145.48;52.40;;;;;;;-1.28;100.00;101833.41;5085244;28;20021;-82
2022/01/10 07:29:49;;;;;;;135.80;49.92;;;;;;;-1.27;100.00;101837.75;5087694;28;20348;-82
2022/01/10 07:32:15;;;;;;;145.07;53.22;;;;;;;-1.25;100.00;101848.03;5088469;28;20032;-82
2022/01/10 07:34:40;;;;;;;136.50;52.05;;;;;;;-1.24;100.00;101850.66;5085467;28;20069;-82
2022/01/10 07:37:05;;;;;;;140.20;52.25;;;;;;;-1.25;100.00;101851.44;5074402;28;20032;-82
2022/01/10 07:39:31;;;;;;;138.30;50.80;;;;;;;-1.28;100.00;101859.00;5083224;28;20032;-82
2022/01/10 07:41:56;;;;;;;150.90;51.60;;;;;;;-1.26;100.00;101866.75;5074610;28;20043;-82
2022/01/10 07:44:21;;;;;;;149.18;52.08;;;;;;;-1.25;100.00;101871.91;5089254;28;20036;-82
2022/01/10 07:46:46;;;;;;;154.60;51.30;;;;;;;-1.27;100.00;101877.81;5094388;28;20032;-82
2022/01/10 07:49:12;;;;;;;160.80;52.25;;;;;;;-1.32;100.00;101875.03;5081798;28;20021;-82
2022/01/10 07:51:37;;;;;;;162.18;53.22;;;;;;;-1.28;100.00;101887.13;5079498;28;20055;-82
2022/01/10 07:54:02;;;;;;;153.02;50.38;;;;;;;-1.33;100.00;101886.09;5075150;28;20024;-82
2022/01/10 07:56:28;;;;;;;146.40;51.00;;;;;;;-1.27;100.00;101905.94;5080208;28;20025;-82
2022/01/10 07:58:53;;;;;;;138.35;51.08;;;;;;;-1.29;100.00;101905.88;5090544;28;20046;-82
2022/01/10 08:01:19;;;;;;;154.40;50.08;;;;;;;-1.28;100.00;101916.97;5094127;28;20039;-82
2022/01/10 08:03:52;;;;;;;140.63;50.63;;;;;;;-1.27;100.00;101926.41;5089023;28;20935;-82
2022/01/10 08:06:21;;;;;;;136.15;50.00;;;;;;;-1.31;100.00;101929.63;5073677;28;20051;-81
2022/01/10 08:08:46;;;;;;;156.70;50.13;;;;;;;-1.32;100.00;101931.31;5075326;28;20380;-82
2022/01/10 08:11:12;;;;;;;156.90;49.28;;;;;;;-1.32;100.00;101940.69;5092444;28;20024;-82
2022/01/10 08:13:37;;;;;;;142.05;48.85;;;;;;;-1.36;100.00;101929.44;5086965;28;20032;-81
2022/01/10 08:16:03;;;;;;;142.73;48.42;;;;;;;-1.33;100.00;101939.81;5087078;28;20032;-81
2022/01/10 08:18:30;;;;;;;165.02;49.60;;;;;;;-1.33;100.00;101947.50;5083199;28;20017;-82
2022/01/10 08:20:56;;;;;;;154.88;48.85;;;;;;;-1.29;100.00;101951.94;5077346;28;20028;-82
2022/01/10 08:23:21;;;;;;;150.63;49.85;;;;;;;-1.28;100.00;101956.22;5091003;28;20110;-82
2022/01/10 08:25:47;;;;;;;158.63;49.78;;;;;;;-1.25;100.00;101964.03;5086667;28;20150;-81
2022/01/10 08:28:12;;;;;;;142.35;49.90;;;;;;;-1.20;100.00;101964.25;5073246;28;20466;-82
2022/01/10 08:30:38;;;;;;;161.57;49.97;;;;;;;-1.20;100.00;101977.91;5074144;28;20036;-82
2022/01/10 08:33:04;;;;;;;146.35;49.80;;;;;;;-1.19;100.00;101984.75;5072494;28;20032;-82
2022/01/10 08:35:30;;;;;;;136.40;45.75;;;;;;;-1.19;100.00;101983.91;5072195;28;20032;-82
2022/01/10 08:37:55;;;;;;;133.20;46.75;;;;;;;-1.11;100.00;101990.22;5072363;28;20031;-82
2022/01/10 08:40:21;;;;;;;139.05;46.28;;;;;;;-1.06;100.00;102000.66;5084142;28;20020;-82
2022/01/10 08:42:46;;;;;;;142.20;46.90;;;;;;;-1.00;100.00;102013.72;5081356;28;20040;-82
2022/01/10 08:45:11;;;;;;;141.15;45.50;;;;;;;-0.96;100.00;102015.59;5071876;28;20459;-82
2022/01/10 08:47:38;;;;;;;139.32;45.33;;;;;;;-0.92;100.00;102022.56;5078165;28;20024;-82
2022/01/10 08:50:06;;;;;;;136.98;45.60;;;;;;;-0.86;100.00;102033.06;5072721;28;20021;-82
2022/01/10 08:52:31;;;;;;;128.55;45.28;;;;;;;-0.83;100.00;102025.53;5071790;28;20028;-82
2022/01/10 08:54:57;;;;;;;139.23;46.25;;;;;;;-0.75;100.00;102039.53;5096151;28;20034;-83
2022/01/10 08:57:22;;;;;;;144.70;44.25;;;;;;;-0.73;100.00;102030.22;5108521;28;20028;-83
2022/01/10 08:59:47;;;;;;;134.95;44.97;;;;;;;-0.66;100.00;102038.16;5079036;28;20063;-81
2022/01/10 09:02:13;;;;;;;154.68;47.83;;;;;;;-0.64;100.00;102031.44;5073281;28;20036;-82
2022/01/10 09:04:39;;;;;;;141.30;47.30;;;;;;;-0.55;100.00;102052.31;5079608;28;20024;-81
2022/01/10 09:07:08;;;;;;;149.48;48.20;;;;;;;-0.49;100.00;102056.00;5085826;28;20103;-82
2022/01/10 09:09:33;;;;;;;159.77;48.42;;;;;;;-0.41;100.00;102060.53;5080832;28;20028;-82
2022/01/10 09:11:58;;;;;;;153.77;48.20;;;;;;;-0.34;100.00;102057.41;5082435;28;20036;-82
2022/01/10 09:14:24;;;;;;;175.07;49.95;;;;;;;-0.29;100.00;102064.47;5092156;28;20024;-82
2022/01/10 09:16:49;;;;;;;172.20;47.67;;;;;;;-0.29;100.00;102061.91;5075744;28;20043;-82
2022/01/10 09:19:15;;;;;;;169.07;48.80;;;;;;;-0.25;100.00;102074.03;5076702;28;20064;-81
2022/01/10 09:21:41;;;;;;;161.27;48.88;;;;;;;-0.19;100.00;102068.28;5076175;28;20041;-82
2022/01/10 09:24:06;;;;;;;166.98;48.50;;;;;;;-0.14;100.00;102071.88;5079758;28;20074;-82
2022/01/10 09:26:31;;;;;;;168.23;47.58;;;;;;;-0.14;100.00;102073.59;5072536;28;20016;-82
2022/01/10 09:28:57;;;;;;;168.15;46.42;;;;;;;-0.09;100.00;102078.09;5086381;28;20024;-81
2022/01/10 09:31:23;;;;;;;151.15;44.65;;;;;;;-0.07;100.00;102079.00;5078871;28;20028;-82
2022/01/10 09:33:54;;;;;;;157.95;43.60;;;;;;;-0.05;100.00;102089.34;5083777;28;20483;-82
2022/01/10 09:36:24;;;;;;;146.75;43.13;;;;;;;-0.01;100.00;102084.38;5079925;28;20056;-82
2022/01/10 09:38:49;;;;;;;153.27;40.40;;;;;;;0.01;100.00;102096.41;5075481;28;20052;-81
2022/01/10 09:41:14;;;;;;;141.43;37.55;;;;;;;-0.04;100.00;102083.38;5080956;28;20113;-82
2022/01/10 09:43:47;;;;;;;143.02;37.92;;;;;;;-0.01;100.00;102089.50;5075082;28;20032;-82
2022/01/10 09:46:12;;;;;;;137.95;36.45;;;;;;;0.00;100.00;102100.66;5080944;28;20131;-81
2022/01/10 09:48:38;;;;;;;120.68;36.22;;;;;;;-0.01;100.00;102092.06;5071058;28;20107;-82
2022/01/10 09:51:04;;;;;;;118.15;35.55;;;;;;;0.05;100.00;102101.72;5072567;28;20476;-81
2022/01/10 09:53:30;;;;;;;113.55;33.85;;;;;;;0.08;100.00;102100.97;5075332;28;20442;-82
2022/01/10 09:55:55;;;;;;;112.97;32.95;;;;;;;0.08;100.00;102106.09;5089785;28;20123;-82
2022/01/10 09:58:20;;;;;;;108.25;32.15;;;;;;;0.11;100.00;102109.66;5086427;28;20032;-82
2022/01/10 10:00:46;;;;;;;97.10;31.15;;;;;;;0.11;100.00;102114.78;5083767;28;20047;-81
2022/01/10 10:03:11;;;;;;;90.25;30.17;;;;;;;0.12;100.00;102116.50;5070615;28;20475;-82
2022/01/10 10:05:36;;;;;;;87.70;28.27;;;;;;;0.12;100.00;102129.34;5079630;28;20063;-82
2022/01/10 10:08:03;;;;;;;100.15;30.33;;;;;;;0.23;100.00;102134.91;5088517;28;20032;-81
2022/01/10 10:10:28;;;;;;;99.38;30.30;;;;;;;0.35;100.00;102139.63;5078786;28;20024;-81
2022/01/10 10:12:54;;;;;;;96.13;30.95;;;;;;;0.39;100.00;102141.50;5082012;28;20033;-81
2022/01/10 10:15:26;;;;;;;93.18;28.98;;;;;;;0.49;100.00;102148.75;5085376;28;20060;-82
2022/01/10 10:17:52;;;;;;;100.65;31.05;;;;;;;0.58;100.00;102156.78;5087376;28;20383;-82
2022/01/10 10:20:23;;;;;;;97.55;30.85;;;;;;;0.73;100.00;102165.91;5080810;28;20028;-81
2022/01/10 10:22:51;;;;;;;96.25;30.25;;;;;;;0.82;100.00;102168.81;5071359;28;20036;-82
2022/01/10 10:25:17;;;;;;;87.90;29.40;;;;;;;0.93;100.00;102182.91;5079781;28;20035;-82
2022/01/10 10:27:45;;;;;;;84.68;30.40;;;;;;;1.05;100.00;102193.66;5072394;28;20024;-82
2022/01/10 10:30:20;;;;;;;82.05;29.05;;;;;;;1.17;100.00;102191.50;5073638;28;20052;-82
2022/01/10 10:32:46;;;;;;;78.07;27.45;;;;;;;1.18;100.00;102195.00;5088662;28;20038;-83
2022/01/10 10:35:12;;;;;;;72.57;27.08;;;;;;;1.23;100.00;102197.72;5089197;28;20028;-83
2022/01/10 10:37:40;;;;;;;65.18;25.98;;;;;;;1.14;100.00;102191.44;5087440;28;20389;-82
2022/01/10 10:40:09;;;;;;;64.28;25.63;;;;;;;1.22;100.00;102195.97;5091210;28;20463;-83
2022/01/10 10:42:39;;;;;;;66.05;25.35;;;;;;;1.28;100.00;102194.50;5090031;28;20115;-82
2022/01/10 10:45:06;;;;;;;71.93;27.40;;;;;;;1.37;100.00;102202.53;5070167;28;20394;-84
2022/01/10 10:47:34;;;;;;;63.47;25.58;;;;;;;1.39;100.00;102206.03;5072025;28;20081;-83
2022/01/10 10:49:59;;;;;;;61.72;25.40;;;;;;;1.43;100.00;102203.56;5084108;28;20429;-82
2022/01/10 10:52:33;;;;;;;63.17;24.77;;;;;;;1.50;100.00;102197.81;5079283;28;20096;-82
2022/01/10 10:55:04;;;;;;;60.78;25.25;;;;;;;1.50;100.00;102197.81;5078142;28;20480;-82
2022/01/10 10:57:32;;;;;;;52.40;23.52;;;;;;;1.42;100.00;102206.97;5075350;28;20028;-81
2022/01/10 10:59:59;;;;;;;52.00;23.88;;;;;;;1.29;100.00;102203.94;5079677;28;20130;-83
2022/01/10 11:02:25;;;;;;;51.42;23.02;;;;;;;1.17;100.00;102204.34;5080913;28;20089;-82